createdAt,value
2019-02-08T00:00:41.942Z,976.73
2019-02-08T00:01:41.932Z,976.74
2019-02-08T00:02:41.910Z,976.72
2019-02-08T00:03:41.905Z,976.76
2019-02-08T00:04:41.881Z,976.74
2019-02-08T00:05:41.867Z,976.78
2019-02-08T00:06:41.851Z,976.76
2019-02-08T00:07:41.837Z,976.74
2019-02-08T00:08:41.819Z,976.73
2019-02-08T00:09:41.803Z,976.73
2019-02-08T00:10:41.790Z,976.76
2019-02-08T00:11:41.773Z,976.73
2019-02-08T00:12:41.761Z,976.72
2019-02-08T00:13:41.743Z,976.75
2019-02-08T00:14:41.730Z,976.79
2019-02-08T00:15:41.725Z,976.84
2019-02-08T00:16:41.699Z,976.82
2019-02-08T00:17:41.681Z,976.80
2019-02-08T00:18:41.667Z,976.82
2019-02-08T00:19:41.651Z,976.79
2019-02-08T00:20:41.725Z,976.80
2019-02-08T00:21:41.620Z,976.85
2019-02-08T00:22:41.608Z,976.89
2019-02-08T00:23:41.592Z,976.88
2019-02-08T00:24:41.583Z,976.86
2019-02-08T00:25:41.563Z,976.85
2019-02-08T00:26:41.546Z,976.86
2019-02-08T00:27:41.530Z,976.83
2019-02-08T00:28:41.516Z,976.83
2019-02-08T00:29:41.498Z,976.83
2019-02-08T00:30:41.488Z,976.81
2019-02-08T00:31:41.473Z,976.84
2019-02-08T00:32:41.454Z,976.82
2019-02-08T00:33:41.441Z,976.85
2019-02-08T00:34:41.422Z,976.85
2019-02-08T00:35:41.409Z,976.84
2019-02-08T00:36:41.394Z,976.85
2019-02-08T00:37:41.378Z,976.83
2019-02-08T00:38:41.363Z,976.85
2019-02-08T00:39:41.347Z,976.83
2019-02-08T00:40:41.331Z,976.88
2019-02-08T00:41:41.322Z,976.88
2019-02-08T00:42:41.302Z,976.84
2019-02-08T00:43:41.286Z,976.78
2019-02-08T00:44:41.271Z,976.84
2019-02-08T00:45:41.254Z,976.84
2019-02-08T00:46:41.240Z,976.76
2019-02-08T00:47:41.226Z,976.79
2019-02-08T00:48:41.208Z,976.81
2019-02-08T00:49:41.192Z,976.79
2019-02-08T00:50:41.182Z,976.78
2019-02-08T00:51:41.163Z,976.76
2019-02-08T00:52:41.148Z,976.78
2019-02-08T00:53:41.132Z,976.73
2019-02-08T00:54:41.116Z,976.72
2019-02-08T00:55:41.103Z,976.72
2019-02-08T00:56:41.088Z,976.70
2019-02-08T00:57:41.073Z,976.67
2019-02-08T00:58:41.057Z,976.66
2019-02-08T00:59:41.044Z,976.63
2019-02-08T01:00:41.028Z,976.59
2019-02-08T01:01:41.012Z,976.62
2019-02-08T01:02:41.000Z,976.62
2019-02-08T01:03:40.984Z,976.60
2019-02-08T01:04:40.964Z,976.63
2019-02-08T01:05:40.948Z,976.68
2019-02-08T01:06:40.935Z,976.67
2019-02-08T01:07:40.918Z,976.62
2019-02-08T01:08:40.903Z,976.64
2019-02-08T01:09:40.889Z,976.67
2019-02-08T01:10:40.874Z,976.62
2019-02-08T01:11:40.859Z,976.67
2019-02-08T01:12:40.844Z,976.68
2019-02-08T01:13:40.828Z,976.60
2019-02-08T01:14:40.812Z,976.66
2019-02-08T01:15:40.796Z,976.63
2019-02-08T01:16:40.780Z,976.68
2019-02-08T01:17:40.767Z,976.70
2019-02-08T01:18:40.749Z,976.67
2019-02-08T01:19:40.734Z,976.70
2019-02-08T01:20:40.719Z,976.72
2019-02-08T01:21:40.702Z,976.74
2019-02-08T01:22:40.692Z,976.67
2019-02-08T01:23:41.465Z,976.73
2019-02-08T01:24:40.659Z,976.75
2019-02-08T01:25:40.641Z,976.79
2019-02-08T01:26:40.628Z,976.81
2019-02-08T01:27:40.610Z,976.83
2019-02-08T01:28:40.596Z,976.88
2019-02-08T01:29:40.581Z,976.90
2019-02-08T01:30:40.566Z,976.89
2019-02-08T01:31:40.549Z,976.88
2019-02-08T01:32:40.534Z,976.88
2019-02-08T01:33:40.519Z,976.89
2019-02-08T01:34:40.504Z,976.90
2019-02-08T01:35:40.489Z,976.92
2019-02-08T01:36:40.471Z,976.89
2019-02-08T01:37:40.457Z,976.92
2019-02-08T01:38:40.443Z,976.96
2019-02-08T01:39:40.428Z,976.99
2019-02-08T01:40:40.409Z,977.00
2019-02-08T01:41:40.393Z,976.96
2019-02-08T01:42:40.378Z,976.90
2019-02-08T01:43:40.365Z,976.90
2019-02-08T01:44:40.350Z,976.85
2019-02-08T01:45:40.337Z,976.85
2019-02-08T01:46:40.321Z,976.85
2019-02-08T01:47:40.303Z,976.83
2019-02-08T01:48:40.288Z,976.80
2019-02-08T01:49:40.271Z,976.76
2019-02-08T01:50:40.256Z,976.74
2019-02-08T01:51:40.244Z,976.76
2019-02-08T01:52:40.228Z,976.74
2019-02-08T01:53:40.212Z,976.70
2019-02-08T01:54:40.194Z,976.77
2019-02-08T01:55:40.180Z,976.81
2019-02-08T01:56:40.165Z,976.82
2019-02-08T01:57:40.149Z,976.77
2019-02-08T01:58:40.134Z,976.81
2019-02-08T01:59:40.119Z,976.80
2019-02-08T02:00:40.107Z,976.81
2019-02-08T02:01:40.087Z,976.80
2019-02-08T02:02:40.072Z,976.79
2019-02-08T02:03:40.056Z,976.73
2019-02-08T02:04:40.053Z,976.73
2019-02-08T02:05:40.027Z,976.72
2019-02-08T02:06:40.011Z,976.74
2019-02-08T02:07:39.996Z,976.73
2019-02-08T02:08:39.978Z,976.75
2019-02-08T02:09:39.964Z,976.74
2019-02-08T02:10:39.950Z,976.62
2019-02-08T02:11:39.932Z,976.65
2019-02-08T02:12:39.918Z,976.65
2019-02-08T02:13:39.902Z,976.63
2019-02-08T02:14:39.887Z,976.69
2019-02-08T02:15:39.872Z,976.65
2019-02-08T02:16:39.855Z,976.68
2019-02-08T02:17:39.841Z,976.66
2019-02-08T02:18:39.823Z,976.68
2019-02-08T02:19:39.812Z,976.68
2019-02-08T02:20:39.797Z,976.68
2019-02-08T02:21:39.778Z,976.71
2019-02-08T02:22:39.762Z,976.68
2019-02-08T02:23:39.747Z,976.70
2019-02-08T02:24:39.733Z,976.69
2019-02-08T02:25:39.716Z,976.69
2019-02-08T02:26:39.701Z,976.68
2019-02-08T02:27:39.684Z,976.71
2019-02-08T02:28:39.668Z,976.68
2019-02-08T02:29:39.655Z,976.62
2019-02-08T02:30:39.642Z,976.61
2019-02-08T02:31:39.630Z,976.66
2019-02-08T02:32:39.612Z,976.63
2019-02-08T02:33:39.590Z,976.63
2019-02-08T02:34:39.582Z,976.55
2019-02-08T02:35:39.566Z,976.58
2019-02-08T02:36:39.548Z,976.61
2019-02-08T02:37:39.538Z,976.61
2019-02-08T02:38:39.514Z,976.63
2019-02-08T02:39:39.501Z,976.64
2019-02-08T02:40:39.513Z,976.70
2019-02-08T02:41:39.467Z,976.68
2019-02-08T02:42:39.458Z,976.70
2019-02-08T02:43:39.438Z,976.71
2019-02-08T02:44:39.422Z,976.72
2019-02-08T02:45:39.411Z,976.74
2019-02-08T02:46:39.391Z,976.76
2019-02-08T02:47:39.377Z,976.76
2019-02-08T02:48:39.364Z,976.79
2019-02-08T02:49:39.345Z,976.77
2019-02-08T02:50:39.330Z,976.79
2019-02-08T02:51:39.312Z,976.79
2019-02-08T02:52:39.300Z,976.82
2019-02-08T02:53:39.288Z,976.85
2019-02-08T02:54:39.266Z,976.77
2019-02-08T02:55:39.253Z,976.81
2019-02-08T02:56:39.243Z,976.83
2019-02-08T02:57:39.220Z,976.85
2019-02-08T02:58:39.206Z,976.80
2019-02-08T02:59:39.191Z,976.90
2019-02-08T03:00:39.174Z,976.90
2019-02-08T03:01:39.160Z,976.91
2019-02-08T03:02:39.143Z,976.90
2019-02-08T03:03:39.130Z,976.93
2019-02-08T03:04:39.115Z,976.99
2019-02-08T03:05:39.096Z,977.00
2019-02-08T03:06:39.081Z,976.96
2019-02-08T03:07:39.068Z,976.93
2019-02-08T03:08:39.736Z,976.98
2019-02-08T03:09:39.037Z,976.97
2019-02-08T03:10:39.022Z,976.97
2019-02-08T03:11:39.006Z,976.97
2019-02-08T03:12:38.991Z,976.99
2019-02-08T03:13:38.974Z,976.95
2019-02-08T03:14:38.960Z,976.93
2019-02-08T03:15:38.945Z,976.92
2019-02-08T03:16:38.930Z,976.93
2019-02-08T03:17:38.918Z,976.88
2019-02-08T03:18:38.898Z,976.89
2019-02-08T03:19:38.882Z,976.88
2019-02-08T03:20:38.866Z,976.89
2019-02-08T03:21:38.850Z,976.89
2019-02-08T03:22:38.836Z,976.93
2019-02-08T03:23:38.822Z,976.89
2019-02-08T03:24:38.810Z,976.90
2019-02-08T03:25:38.789Z,976.86
2019-02-08T03:26:38.773Z,976.85
2019-02-08T03:27:38.759Z,976.82
2019-02-08T03:28:38.744Z,976.80
2019-02-08T03:29:38.729Z,976.86
2019-02-08T03:30:38.714Z,976.91
2019-02-08T03:31:38.699Z,976.84
2019-02-08T03:32:38.683Z,976.83
2019-02-08T03:33:38.676Z,976.83
2019-02-08T03:34:38.650Z,976.82
2019-02-08T03:35:38.636Z,976.84
2019-02-08T03:36:38.622Z,976.82
2019-02-08T03:37:38.606Z,976.82
2019-02-08T03:38:38.591Z,976.79
2019-02-08T03:39:38.575Z,976.76
2019-02-08T03:40:38.558Z,976.75
2019-02-08T03:41:38.543Z,976.75
2019-02-08T03:42:38.526Z,976.74
2019-02-08T03:43:38.514Z,976.77
2019-02-08T03:44:38.496Z,976.79
2019-02-08T03:45:38.482Z,976.75
2019-02-08T03:46:38.464Z,976.76
2019-02-08T03:47:38.448Z,976.79
2019-02-08T03:48:38.435Z,976.78
2019-02-08T03:49:38.417Z,976.79
2019-02-08T03:50:38.403Z,976.80
2019-02-08T03:51:38.391Z,976.80
2019-02-08T03:52:38.373Z,976.79
2019-02-08T03:53:38.356Z,976.81
2019-02-08T03:54:38.345Z,976.81
2019-02-08T03:55:38.324Z,976.78
2019-02-08T03:56:38.309Z,976.79
2019-02-08T03:57:38.294Z,976.75
2019-02-08T03:58:38.278Z,976.78
2019-02-08T03:59:38.265Z,976.73
2019-02-08T04:00:38.249Z,976.71
2019-02-08T04:01:38.234Z,976.65
2019-02-08T04:02:38.216Z,976.68
2019-02-08T04:03:38.200Z,976.68
2019-02-08T04:04:38.185Z,976.73
2019-02-08T04:05:38.168Z,976.68
2019-02-08T04:06:38.155Z,976.66
2019-02-08T04:07:38.138Z,976.66
2019-02-08T04:08:38.124Z,976.67
2019-02-08T04:09:38.107Z,976.67
2019-02-08T04:10:38.092Z,976.64
2019-02-08T04:11:38.087Z,976.60
2019-02-08T04:12:38.061Z,976.60
2019-02-08T04:13:38.045Z,976.63
2019-02-08T04:14:38.033Z,976.57
2019-02-08T04:15:38.017Z,976.57
2019-02-08T04:16:38.000Z,976.64
2019-02-08T04:17:37.986Z,976.64
2019-02-08T04:18:37.970Z,976.67
2019-02-08T04:19:37.969Z,976.62
2019-02-08T04:20:37.939Z,976.67
2019-02-08T04:21:37.921Z,976.70
2019-02-08T04:22:37.906Z,976.67
2019-02-08T04:23:37.890Z,976.73
2019-02-08T04:24:37.876Z,976.64
2019-02-08T04:25:37.861Z,976.68
2019-02-08T04:26:37.844Z,976.67
2019-02-08T04:27:37.831Z,976.64
2019-02-08T04:28:37.813Z,976.63
2019-02-08T04:29:37.796Z,976.62
2019-02-08T04:30:37.782Z,976.66
2019-02-08T04:31:37.768Z,976.71
2019-02-08T04:32:37.749Z,976.70
2019-02-08T04:33:37.735Z,976.64
2019-02-08T04:34:37.721Z,976.66
2019-02-08T04:35:37.718Z,976.63
2019-02-08T04:36:37.691Z,976.73
2019-02-08T04:37:37.674Z,976.70
2019-02-08T04:38:37.658Z,976.69
2019-02-08T04:39:37.642Z,976.72
2019-02-08T04:40:37.631Z,976.74
2019-02-08T04:41:37.612Z,976.75
2019-02-08T04:42:37.596Z,976.74
2019-02-08T04:43:37.579Z,976.71
2019-02-08T04:44:37.565Z,976.71
2019-02-08T04:45:37.548Z,976.72
2019-02-08T04:46:37.535Z,976.71
2019-02-08T04:47:37.518Z,976.74
2019-02-08T04:48:37.508Z,976.74
2019-02-08T04:49:37.486Z,976.68
2019-02-08T04:50:37.474Z,976.68
2019-02-08T04:51:37.462Z,976.72
2019-02-08T04:52:37.443Z,976.68
2019-02-08T04:53:37.424Z,976.69
2019-02-08T04:54:38.605Z,976.68
2019-02-08T04:55:37.393Z,976.63
2019-02-08T04:56:37.378Z,976.63
2019-02-08T04:57:37.360Z,976.55
2019-02-08T04:58:37.347Z,976.59
2019-02-08T04:59:37.329Z,976.57
2019-02-08T05:00:37.317Z,976.58
2019-02-08T05:01:37.300Z,976.59
2019-02-08T05:02:37.283Z,976.54
2019-02-08T05:03:37.268Z,976.55
2019-02-08T05:04:37.256Z,976.56
2019-02-08T05:05:37.238Z,976.52
2019-02-08T05:06:37.222Z,976.52
2019-02-08T05:07:37.205Z,976.50
2019-02-08T05:08:37.190Z,976.52
2019-02-08T05:09:37.179Z,976.53
2019-02-08T05:10:37.167Z,976.46
2019-02-08T05:11:37.145Z,976.45
2019-02-08T05:12:37.127Z,976.51
2019-02-08T05:13:37.111Z,976.51
2019-02-08T05:14:37.098Z,976.55
2019-02-08T05:15:37.079Z,976.54
2019-02-08T05:16:37.063Z,976.51
2019-02-08T05:17:37.046Z,976.45
2019-02-08T05:18:37.035Z,976.49
2019-02-08T05:19:37.018Z,976.49
2019-02-08T05:20:37.004Z,976.49
2019-02-08T05:21:36.987Z,976.52
2019-02-08T05:22:36.969Z,976.55
2019-02-08T05:23:36.955Z,976.54
2019-02-08T05:24:36.938Z,976.51
2019-02-08T05:25:36.927Z,976.55
2019-02-08T05:26:36.908Z,976.55
2019-02-08T05:27:36.889Z,976.57
2019-02-08T05:28:36.875Z,976.55
2019-02-08T05:29:36.859Z,976.57
2019-02-08T05:31:36.827Z,976.49
2019-02-08T05:32:36.811Z,976.49
2019-02-08T05:33:36.796Z,976.54
2019-02-08T05:34:36.782Z,976.53
2019-02-08T05:35:36.765Z,976.51
2019-02-08T05:36:36.752Z,976.48
2019-02-08T05:37:36.735Z,976.47
2019-02-08T05:38:36.719Z,976.46
2019-02-08T05:39:37.472Z,976.43
2019-02-08T05:40:36.692Z,976.45
2019-02-08T05:41:36.672Z,976.47
2019-02-08T05:42:36.655Z,976.51
2019-02-08T05:43:36.637Z,976.48
2019-02-08T05:44:36.623Z,976.47
2019-02-08T05:45:36.608Z,976.48
2019-02-08T05:46:36.588Z,976.47
2019-02-08T05:47:36.576Z,976.47
2019-02-08T05:48:36.561Z,976.48
2019-02-08T05:49:36.542Z,976.47
2019-02-08T05:50:36.525Z,976.43
2019-02-08T05:51:36.513Z,976.44
2019-02-08T05:52:36.497Z,976.38
2019-02-08T05:53:36.479Z,976.44
2019-02-08T05:54:36.464Z,976.43
2019-02-08T05:55:36.447Z,976.39
2019-02-08T05:56:36.431Z,976.41
2019-02-08T05:57:36.414Z,976.43
2019-02-08T05:58:36.399Z,976.37
2019-02-08T05:59:36.388Z,976.40
2019-02-08T06:00:36.367Z,976.43
2019-02-08T06:01:36.350Z,976.46
2019-02-08T06:02:36.335Z,976.49
2019-02-08T06:03:36.320Z,976.52
2019-02-08T06:04:36.307Z,976.49
2019-02-08T06:05:36.289Z,976.52
2019-02-08T06:06:36.361Z,976.55
2019-02-08T06:07:36.256Z,976.54
2019-02-08T06:08:36.242Z,976.51
2019-02-08T06:09:36.223Z,976.51
2019-02-08T06:10:36.209Z,976.53
2019-02-08T06:11:36.194Z,976.53
2019-02-08T06:12:36.178Z,976.52
2019-02-08T06:13:36.161Z,976.52
2019-02-08T06:14:36.148Z,976.55
2019-02-08T06:15:36.130Z,976.53
2019-02-08T06:16:36.114Z,976.47
2019-02-08T06:17:36.096Z,976.52
2019-02-08T06:18:36.079Z,976.52
2019-02-08T06:19:36.063Z,976.50
2019-02-08T06:20:36.051Z,976.51
2019-02-08T06:21:36.032Z,976.46
2019-02-08T06:22:36.017Z,976.47
2019-02-08T06:23:36.001Z,976.49
2019-02-08T06:24:35.987Z,976.51
2019-02-08T06:25:35.966Z,976.51
2019-02-08T06:26:35.952Z,976.48
2019-02-08T06:27:35.935Z,976.50
2019-02-08T06:28:35.919Z,976.49
2019-02-08T06:29:35.903Z,976.48
2019-02-08T06:30:35.890Z,976.48
2019-02-08T06:31:35.873Z,976.49
2019-02-08T06:32:35.857Z,976.50
2019-02-08T06:33:35.841Z,976.50
2019-02-08T06:34:35.827Z,976.53
2019-02-08T06:35:35.809Z,976.51
2019-02-08T06:36:35.792Z,976.45
2019-02-08T06:37:35.776Z,976.46
2019-02-08T06:38:35.761Z,976.49
2019-02-08T06:39:35.743Z,976.49
2019-02-08T06:40:35.728Z,976.50
2019-02-08T06:41:35.724Z,976.54
2019-02-08T06:42:35.697Z,976.52
2019-02-08T06:43:35.684Z,976.52
2019-02-08T06:44:35.665Z,976.50
2019-02-08T06:45:35.649Z,976.48
2019-02-08T06:46:35.632Z,976.49
2019-02-08T06:47:35.616Z,976.52
2019-02-08T06:48:35.604Z,976.52
2019-02-08T06:49:35.584Z,976.51
2019-02-08T06:50:35.568Z,976.53
2019-02-08T06:51:35.553Z,976.55
2019-02-08T06:52:35.536Z,976.49
2019-02-08T06:53:35.522Z,976.50
2019-02-08T06:54:35.504Z,976.47
2019-02-08T06:55:35.490Z,976.48
2019-02-08T06:56:35.475Z,976.48
2019-02-08T06:57:35.456Z,976.50
2019-02-08T06:58:35.440Z,976.55
2019-02-08T06:59:35.425Z,976.52
2019-02-08T07:00:35.409Z,976.54
2019-02-08T07:01:35.392Z,976.52
2019-02-08T07:02:35.379Z,976.54
2019-02-08T07:03:35.362Z,976.51
2019-02-08T07:04:35.344Z,976.57
2019-02-08T07:05:35.328Z,976.55
2019-02-08T07:06:35.314Z,976.57
2019-02-08T07:07:35.301Z,976.58
2019-02-08T07:08:35.280Z,976.60
2019-02-08T07:09:35.264Z,976.61
2019-02-08T07:10:35.249Z,976.58
2019-02-08T07:11:35.232Z,976.57
2019-02-08T07:12:35.216Z,976.53
2019-02-08T07:13:35.199Z,976.55
2019-02-08T07:14:35.183Z,976.54
2019-02-08T07:15:35.169Z,976.52
2019-02-08T07:16:35.152Z,976.53
2019-02-08T07:17:35.134Z,976.49
2019-02-08T07:18:35.119Z,976.49
2019-02-08T07:19:35.103Z,976.48
2019-02-08T07:20:35.099Z,976.49
2019-02-08T07:21:35.073Z,976.48
2019-02-08T07:22:35.057Z,976.51
2019-02-08T07:23:35.039Z,976.55
2019-02-08T07:24:35.026Z,976.58
2019-02-08T07:25:35.008Z,976.60
2019-02-08T07:26:34.993Z,976.63
2019-02-08T07:27:34.976Z,976.64
2019-02-08T07:28:34.967Z,976.64
2019-02-08T07:29:34.945Z,976.63
2019-02-08T07:30:34.933Z,976.66
2019-02-08T07:31:34.913Z,976.65
2019-02-08T07:32:34.897Z,976.65
2019-02-08T07:33:34.879Z,976.71
2019-02-08T07:34:34.868Z,976.68
2019-02-08T07:35:34.849Z,976.71
2019-02-08T07:36:34.834Z,976.75
2019-02-08T07:37:34.817Z,976.71
2019-02-08T07:38:34.805Z,976.67
2019-02-08T07:39:34.785Z,976.67
2019-02-08T07:40:34.768Z,976.69
2019-02-08T07:41:34.752Z,976.68
2019-02-08T07:42:34.735Z,976.64
2019-02-08T07:43:34.721Z,976.67
2019-02-08T07:44:34.754Z,976.68
2019-02-08T07:45:34.689Z,976.70
2019-02-08T07:46:34.673Z,976.68
2019-02-08T07:47:34.656Z,976.69
2019-02-08T07:48:34.642Z,976.68
2019-02-08T07:49:34.625Z,976.66
2019-02-08T07:50:34.608Z,976.69
2019-02-08T07:51:34.594Z,976.68
2019-02-08T07:52:34.576Z,976.71
2019-02-08T07:53:34.559Z,976.68
2019-02-08T07:54:34.544Z,976.67
2019-02-08T07:55:34.528Z,976.65
2019-02-08T07:56:34.542Z,976.68
2019-02-08T07:57:34.496Z,976.71
2019-02-08T07:58:34.482Z,976.71
2019-02-08T07:59:34.465Z,976.70
2019-02-08T08:00:34.450Z,976.73
2019-02-08T08:01:34.434Z,976.73
2019-02-08T08:02:34.419Z,976.74
2019-02-08T08:03:34.402Z,976.74
2019-02-08T08:04:34.388Z,976.71
2019-02-08T08:05:34.369Z,976.72
2019-02-08T08:06:34.355Z,976.75
2019-02-08T08:07:34.341Z,976.74
2019-02-08T08:08:34.325Z,976.77
2019-02-08T08:09:34.308Z,976.77
2019-02-08T08:10:34.296Z,976.77
2019-02-08T08:11:34.277Z,976.78
2019-02-08T08:12:34.263Z,976.74
2019-02-08T08:13:34.245Z,976.78
2019-02-08T08:14:34.228Z,976.78
2019-02-08T08:15:34.214Z,976.78
2019-02-08T08:16:34.204Z,976.78
2019-02-08T08:17:34.182Z,976.78
2019-02-08T08:18:34.165Z,976.78
2019-02-08T08:19:34.149Z,976.81
2019-02-08T08:20:34.165Z,976.82
2019-02-08T08:21:34.117Z,976.85
2019-02-08T08:22:34.104Z,976.83
2019-02-08T08:23:34.089Z,976.85
2019-02-08T08:24:34.072Z,976.88
2019-02-08T08:25:34.353Z,976.88
2019-02-08T08:26:34.038Z,976.90
2019-02-08T08:27:34.025Z,976.90
2019-02-08T08:28:34.008Z,976.92
2019-02-08T08:29:34.011Z,976.92
2019-02-08T08:30:33.977Z,976.97
2019-02-08T08:31:33.962Z,976.94
2019-02-08T08:32:33.945Z,976.93
2019-02-08T08:33:33.933Z,976.93
2019-02-08T08:34:33.914Z,976.97
2019-02-08T08:35:33.900Z,976.97
2019-02-08T08:36:33.887Z,976.95
2019-02-08T08:37:33.868Z,976.92
2019-02-08T08:38:33.851Z,976.96
2019-02-08T08:39:33.843Z,976.91
2019-02-08T08:40:33.824Z,976.92
2019-02-08T08:41:33.807Z,976.92
2019-02-08T08:42:33.792Z,976.93
2019-02-08T08:43:33.775Z,976.92
2019-02-08T08:44:33.760Z,977.00
2019-02-08T08:45:33.747Z,977.00
2019-02-08T08:46:33.732Z,976.99
2019-02-08T08:47:33.715Z,976.96
2019-02-08T08:48:33.711Z,976.95
2019-02-08T08:49:33.683Z,976.93
2019-02-08T08:50:33.671Z,976.90
2019-02-08T08:51:33.653Z,976.91
2019-02-08T08:52:33.640Z,976.94
2019-02-08T08:53:33.624Z,976.90
2019-02-08T08:54:33.609Z,976.91
2019-02-08T08:55:33.596Z,976.91
2019-02-08T08:56:33.580Z,976.92
2019-02-08T08:57:33.564Z,976.86
2019-02-08T08:58:33.551Z,976.86
2019-02-08T08:59:33.536Z,976.89
2019-02-08T09:00:33.520Z,976.90
2019-02-08T09:01:33.504Z,976.84
2019-02-08T09:02:33.490Z,976.82
2019-02-08T09:03:33.473Z,976.80
2019-02-08T09:04:33.462Z,976.75
2019-02-08T09:05:33.447Z,976.71
2019-02-08T09:06:33.431Z,976.68
2019-02-08T09:07:33.414Z,976.69
2019-02-08T09:08:33.401Z,976.68
2019-02-08T09:09:33.386Z,976.67
2019-02-08T09:10:33.369Z,976.64
2019-02-08T09:11:33.356Z,976.62
2019-02-08T09:12:33.342Z,976.59
2019-02-08T09:13:33.334Z,976.59
2019-02-08T09:14:33.311Z,976.61
2019-02-08T09:15:33.334Z,976.52
2019-02-08T09:16:33.282Z,976.52
2019-02-08T09:17:33.266Z,976.52
2019-02-08T09:18:33.255Z,976.48
2019-02-08T09:19:33.238Z,976.43
2019-02-08T09:20:33.224Z,976.40
2019-02-08T09:21:33.208Z,976.44
2019-02-08T09:22:33.194Z,976.37
2019-02-08T09:23:33.179Z,976.35
2019-02-08T09:24:33.167Z,976.36
2019-02-08T09:25:33.152Z,976.36
2019-02-08T09:26:33.137Z,976.35
2019-02-08T09:27:33.132Z,976.33
2019-02-08T09:28:33.110Z,976.34
2019-02-08T09:29:33.094Z,976.31
2019-02-08T09:30:33.079Z,976.33
2019-02-08T09:31:33.068Z,976.33
2019-02-08T09:32:33.052Z,976.30
2019-02-08T09:33:33.036Z,976.32
2019-02-08T09:34:33.023Z,976.31
2019-02-08T09:35:33.009Z,976.30
2019-02-08T09:36:32.997Z,976.28
2019-02-08T09:37:32.979Z,976.28
2019-02-08T09:38:32.967Z,976.29
2019-02-08T09:39:32.951Z,976.28
2019-02-08T09:40:32.940Z,976.32
2019-02-08T09:41:32.924Z,976.28
2019-02-08T09:42:32.910Z,976.32
2019-02-08T09:43:32.896Z,976.30
2019-02-08T09:44:32.882Z,976.31
2019-02-08T09:45:32.869Z,976.33
2019-02-08T09:46:32.862Z,976.36
2019-02-08T09:47:32.841Z,976.34
2019-02-08T09:48:32.843Z,976.37
2019-02-08T09:49:32.813Z,976.37
2019-02-08T09:50:32.801Z,976.39
2019-02-08T09:51:32.786Z,976.41
2019-02-08T09:52:32.773Z,976.41
2019-02-08T09:53:32.759Z,976.43
2019-02-08T09:54:32.747Z,976.41
2019-02-08T09:55:32.732Z,976.41
2019-02-08T09:56:32.720Z,976.42
2019-02-08T09:57:32.705Z,976.42
2019-02-08T09:58:32.695Z,976.42
2019-02-08T09:59:32.678Z,976.40
2019-02-08T10:00:32.671Z,976.43
2019-02-08T10:01:32.653Z,976.41
2019-02-08T10:02:32.642Z,976.39
2019-02-08T10:03:32.629Z,976.41
2019-02-08T10:04:32.614Z,976.45
2019-02-08T10:05:32.601Z,976.44
2019-02-08T10:06:32.587Z,976.47
2019-02-08T10:07:32.578Z,976.47
2019-02-08T10:08:32.565Z,976.48
2019-02-08T10:09:32.570Z,976.43
2019-02-08T10:10:32.538Z,976.36
2019-02-08T10:11:32.523Z,976.42
2019-02-08T10:12:32.510Z,976.37
2019-02-08T10:13:32.495Z,976.40
2019-02-08T10:14:32.485Z,976.37
2019-02-08T10:15:32.472Z,976.36
2019-02-08T10:16:32.457Z,976.31
2019-02-08T10:17:32.445Z,976.34
2019-02-08T10:18:32.432Z,976.32
2019-02-08T10:19:32.419Z,976.29
2019-02-08T10:20:32.405Z,976.28
2019-02-08T10:21:32.393Z,976.25
2019-02-08T10:22:32.385Z,976.26
2019-02-08T10:23:32.368Z,976.21
2019-02-08T10:24:32.357Z,976.23
2019-02-08T10:25:32.341Z,976.23
2019-02-08T10:26:32.328Z,976.24
2019-02-08T10:27:32.315Z,976.21
2019-02-08T10:28:32.303Z,976.19
2019-02-08T10:29:32.290Z,976.17
2019-02-08T10:30:32.279Z,976.15
2019-02-08T10:31:32.267Z,976.09
2019-02-08T10:32:32.253Z,976.05
2019-02-08T10:33:32.238Z,976.06
2019-02-08T10:34:32.851Z,976.00
2019-02-08T10:35:32.214Z,975.95
2019-02-08T10:36:32.203Z,975.97
2019-02-08T10:37:32.189Z,975.97
2019-02-08T10:38:32.176Z,975.98
2019-02-08T10:39:32.164Z,975.95
2019-02-08T10:40:32.149Z,975.95
2019-02-08T10:41:32.138Z,975.95
2019-02-08T10:42:32.127Z,975.96
2019-02-08T10:43:32.112Z,975.94
2019-02-08T10:44:32.102Z,975.94
2019-02-08T10:45:32.086Z,975.97
2019-02-08T10:46:32.076Z,975.98
2019-02-08T10:47:32.063Z,975.95
2019-02-08T10:48:32.051Z,975.95
2019-02-08T10:49:32.048Z,975.98
2019-02-08T10:50:32.025Z,975.93
2019-02-08T10:51:32.014Z,975.93
2019-02-08T10:52:32.001Z,975.91
2019-02-08T10:53:31.990Z,975.92
2019-02-08T10:54:31.974Z,975.85
2019-02-08T10:55:31.964Z,975.85
2019-02-08T10:56:31.952Z,975.86
2019-02-08T10:57:31.937Z,975.82
2019-02-08T10:58:31.929Z,975.82
2019-02-08T10:59:31.914Z,975.83
2019-02-08T11:00:31.902Z,975.83
2019-02-08T11:01:31.890Z,975.83
2019-02-08T11:02:31.878Z,975.78
2019-02-08T11:03:31.868Z,975.71
2019-02-08T11:04:31.854Z,975.71
2019-02-08T11:05:31.838Z,975.66
2019-02-08T11:06:31.839Z,975.63
2019-02-08T11:07:31.815Z,975.58
2019-02-08T11:08:31.804Z,975.61
2019-02-08T11:09:31.791Z,975.62
2019-02-08T11:10:31.783Z,975.60
2019-02-08T11:11:31.769Z,975.58
2019-02-08T11:12:31.757Z,975.56
2019-02-08T11:13:31.743Z,975.57
2019-02-08T11:14:31.732Z,975.58
2019-02-08T11:15:31.721Z,975.54
2019-02-08T11:16:31.710Z,975.54
2019-02-08T11:17:31.708Z,975.56
2019-02-08T11:18:31.700Z,975.54
2019-02-08T11:19:31.673Z,975.50
2019-02-08T11:20:31.661Z,975.53
2019-02-08T11:21:31.649Z,975.45
2019-02-08T11:22:31.639Z,975.43
2019-02-08T11:23:31.624Z,975.45
2019-02-08T11:24:31.615Z,975.42
2019-02-08T11:25:31.602Z,975.39
2019-02-08T11:26:31.591Z,975.36
2019-02-08T11:27:31.578Z,975.37
2019-02-08T11:28:31.567Z,975.37
2019-02-08T11:29:31.559Z,975.33
2019-02-08T11:30:31.542Z,975.30
2019-02-08T11:31:31.530Z,975.32
2019-02-08T11:32:43.003Z,975.27
2019-02-08T11:33:31.507Z,975.29
2019-02-08T11:34:31.495Z,975.28
2019-02-08T11:35:31.482Z,975.28
2019-02-08T11:36:31.471Z,975.28
2019-02-08T11:37:31.461Z,975.28
2019-02-08T11:38:31.451Z,975.27
2019-02-08T11:39:31.433Z,975.24
2019-02-08T11:40:31.421Z,975.20
2019-02-08T11:41:31.411Z,975.23
2019-02-08T11:42:31.417Z,975.19
2019-02-08T11:43:31.390Z,975.20
2019-02-08T11:44:31.377Z,975.16
2019-02-08T11:45:31.366Z,975.18
2019-02-08T11:46:31.353Z,975.20
2019-02-08T11:47:31.340Z,975.15
2019-02-08T11:48:31.330Z,975.11
2019-02-08T11:49:31.320Z,975.13
2019-02-08T11:50:31.310Z,975.15
2019-02-08T11:51:31.302Z,975.09
2019-02-08T11:52:31.284Z,975.11
2019-02-08T11:53:31.274Z,975.03
2019-02-08T11:54:31.262Z,975.03
2019-02-08T11:55:31.251Z,975.01
2019-02-08T11:56:31.238Z,974.94
2019-02-08T11:57:31.228Z,974.91
2019-02-08T11:58:31.216Z,974.91
2019-02-08T11:59:31.203Z,974.93
2019-02-08T12:00:31.194Z,974.84
2019-02-08T12:01:31.181Z,974.86
2019-02-08T12:02:31.172Z,974.83
2019-02-08T12:03:31.156Z,974.76
2019-02-08T12:04:31.146Z,974.73
2019-02-08T12:05:31.134Z,974.71
2019-02-08T12:06:31.122Z,974.62
2019-02-08T12:07:31.112Z,974.62
2019-02-08T12:08:31.100Z,974.60
2019-02-08T12:09:31.089Z,974.62
2019-02-08T12:10:31.077Z,974.60
2019-02-08T12:11:31.067Z,974.57
2019-02-08T12:12:31.054Z,974.56
2019-02-08T12:13:31.042Z,974.57
2019-02-08T12:14:31.031Z,974.50
2019-02-08T12:15:31.019Z,974.50
2019-02-08T12:16:31.007Z,974.51
2019-02-08T12:17:30.996Z,974.51
2019-02-08T12:18:30.985Z,974.52
2019-02-08T12:19:30.974Z,974.53
2019-02-08T12:20:30.963Z,974.48
2019-02-08T12:21:30.948Z,974.44
2019-02-08T12:22:30.940Z,974.41
2019-02-08T12:23:30.928Z,974.41
2019-02-08T12:24:30.914Z,974.36
2019-02-08T12:25:30.903Z,974.38
2019-02-08T12:26:37.696Z,974.30
2019-02-08T12:27:30.882Z,974.29
2019-02-08T12:28:31.929Z,974.32
2019-02-08T12:29:30.857Z,974.32